sensor_id;sensor_type;location;lat;lon;timestamp;P1;durP1;ratioP1;P2;durP2;ratioP2
42036;SDS011;75222;52.004;5.908;2024-03-08T00:00:15;14.95;;;9.10;;
42036;SDS011;75222;52.004;5.908;2024-03-08T00:02:43;16.02;;;8.77;;
42036;SDS011;75222;52.004;5.908;2024-03-08T00:05:10;18.83;;;10.90;;
42036;SDS011;75222;52.004;5.908;2024-03-08T00:07:37;18.30;;;9.75;;
42036;SDS011;75222;52.004;5.908;2024-03-08T00:10:04;18.45;;;9.90;;
42036;SDS011;75222;52.004;5.908;2024-03-08T00:12:30;25.20;;;12.30;;
42036;SDS011;75222;52.004;5.908;2024-03-08T00:14:56;20.50;;;11.27;;
42036;SDS011;75222;52.004;5.908;2024-03-08T00:17:22;20.30;;;11.57;;
42036;SDS011;75222;52.004;5.908;2024-03-08T00:19:48;17.77;;;9.73;;
42036;SDS011;75222;52.004;5.908;2024-03-08T00:22:14;18.08;;;10.40;;
42036;SDS011;75222;52.004;5.908;2024-03-08T00:24:41;19.50;;;10.95;;
42036;SDS011;75222;52.004;5.908;2024-03-08T00:27:07;17.65;;;10.65;;
42036;SDS011;75222;52.004;5.908;2024-03-08T00:29:33;21.55;;;11.35;;
42036;SDS011;75222;52.004;5.908;2024-03-08T00:31:59;19.67;;;10.65;;
42036;SDS011;75222;52.004;5.908;2024-03-08T00:34:25;20.08;;;10.93;;
42036;SDS011;75222;52.004;5.908;2024-03-08T00:36:50;21.35;;;10.90;;
42036;SDS011;75222;52.004;5.908;2024-03-08T00:39:17;17.92;;;10.00;;
42036;SDS011;75222;52.004;5.908;2024-03-08T00:41:45;20.48;;;11.60;;
42036;SDS011;75222;52.004;5.908;2024-03-08T00:44:10;18.80;;;10.38;;
42036;SDS011;75222;52.004;5.908;2024-03-08T00:46:36;17.83;;;9.23;;
42036;SDS011;75222;52.004;5.908;2024-03-08T00:49:01;18.98;;;10.07;;
42036;SDS011;75222;52.004;5.908;2024-03-08T00:51:27;18.08;;;9.93;;
42036;SDS011;75222;52.004;5.908;2024-03-08T00:53:53;20.75;;;10.95;;
42036;SDS011;75222;52.004;5.908;2024-03-08T00:56:18;21.00;;;11.70;;
42036;SDS011;75222;52.004;5.908;2024-03-08T00:58:44;22.17;;;11.70;;
42036;SDS011;75222;52.004;5.908;2024-03-08T01:01:09;15.32;;;9.75;;
42036;SDS011;75222;52.004;5.908;2024-03-08T01:03:35;20.45;;;11.00;;
42036;SDS011;75222;52.004;5.908;2024-03-08T01:06:01;15.68;;;9.18;;
42036;SDS011;75222;52.004;5.908;2024-03-08T01:08:27;17.40;;;10.63;;
42036;SDS011;75222;52.004;5.908;2024-03-08T01:10:53;20.80;;;11.07;;
42036;SDS011;75222;52.004;5.908;2024-03-08T01:13:18;22.45;;;12.85;;
42036;SDS011;75222;52.004;5.908;2024-03-08T01:15:44;20.58;;;11.75;;
42036;SDS011;75222;52.004;5.908;2024-03-08T01:18:10;16.38;;;10.07;;
42036;SDS011;75222;52.004;5.908;2024-03-08T01:20:36;17.58;;;9.60;;
42036;SDS011;75222;52.004;5.908;2024-03-08T01:23:02;16.00;;;9.32;;
42036;SDS011;75222;52.004;5.908;2024-03-08T01:25:32;17.13;;;8.98;;
42036;SDS011;75222;52.004;5.908;2024-03-08T01:27:58;16.17;;;9.60;;
42036;SDS011;75222;52.004;5.908;2024-03-08T01:30:23;17.42;;;10.65;;
42036;SDS011;75222;52.004;5.908;2024-03-08T01:32:49;21.77;;;12.90;;
42036;SDS011;75222;52.004;5.908;2024-03-08T01:35:14;20.77;;;11.40;;
42036;SDS011;75222;52.004;5.908;2024-03-08T01:37:40;19.50;;;11.82;;
42036;SDS011;75222;52.004;5.908;2024-03-08T01:40:06;22.50;;;13.25;;
42036;SDS011;75222;52.004;5.908;2024-03-08T01:42:33;18.75;;;11.13;;
42036;SDS011;75222;52.004;5.908;2024-03-08T01:45:02;22.92;;;13.23;;
42036;SDS011;75222;52.004;5.908;2024-03-08T01:47:31;19.90;;;11.18;;
42036;SDS011;75222;52.004;5.908;2024-03-08T01:49:58;21.02;;;11.60;;
42036;SDS011;75222;52.004;5.908;2024-03-08T01:52:26;18.65;;;11.57;;
42036;SDS011;75222;52.004;5.908;2024-03-08T01:54:53;18.23;;;10.50;;
42036;SDS011;75222;52.004;5.908;2024-03-08T01:57:19;19.00;;;11.23;;
42036;SDS011;75222;52.004;5.908;2024-03-08T01:59:44;18.63;;;11.27;;
42036;SDS011;75222;52.004;5.908;2024-03-08T02:02:10;21.65;;;11.75;;
42036;SDS011;75222;52.004;5.908;2024-03-08T02:04:40;20.13;;;11.02;;
42036;SDS011;75222;52.004;5.908;2024-03-08T02:07:05;21.80;;;13.40;;
42036;SDS011;75222;52.004;5.908;2024-03-08T02:09:31;18.95;;;11.02;;
42036;SDS011;75222;52.004;5.908;2024-03-08T02:11:57;23.90;;;12.75;;
42036;SDS011;75222;52.004;5.908;2024-03-08T02:14:22;23.40;;;13.32;;
42036;SDS011;75222;52.004;5.908;2024-03-08T02:16:48;24.23;;;13.82;;
42036;SDS011;75222;52.004;5.908;2024-03-08T02:19:15;21.52;;;12.93;;
42036;SDS011;75222;52.004;5.908;2024-03-08T02:21:41;22.52;;;13.07;;
42036;SDS011;75222;52.004;5.908;2024-03-08T02:24:07;21.30;;;12.60;;
42036;SDS011;75222;52.004;5.908;2024-03-08T02:26:32;19.88;;;11.60;;
42036;SDS011;75222;52.004;5.908;2024-03-08T02:28:58;20.42;;;11.70;;
42036;SDS011;75222;52.004;5.908;2024-03-08T02:31:23;23.05;;;12.50;;
42036;SDS011;75222;52.004;5.908;2024-03-08T02:33:49;19.95;;;11.57;;
42036;SDS011;75222;52.004;5.908;2024-03-08T02:36:14;20.52;;;11.35;;
42036;SDS011;75222;52.004;5.908;2024-03-08T02:38:41;18.80;;;11.32;;
42036;SDS011;75222;52.004;5.908;2024-03-08T02:41:06;21.38;;;12.57;;
42036;SDS011;75222;52.004;5.908;2024-03-08T02:43:33;20.35;;;11.52;;
42036;SDS011;75222;52.004;5.908;2024-03-08T02:45:59;19.90;;;11.95;;
42036;SDS011;75222;52.004;5.908;2024-03-08T02:48:25;18.73;;;11.35;;
42036;SDS011;75222;52.004;5.908;2024-03-08T02:50:51;19.27;;;11.80;;
42036;SDS011;75222;52.004;5.908;2024-03-08T02:53:16;21.30;;;12.60;;
42036;SDS011;75222;52.004;5.908;2024-03-08T02:55:43;22.17;;;13.18;;
42036;SDS011;75222;52.004;5.908;2024-03-08T02:58:09;23.25;;;13.75;;
42036;SDS011;75222;52.004;5.908;2024-03-08T03:00:35;19.75;;;12.00;;
42036;SDS011;75222;52.004;5.908;2024-03-08T03:03:02;21.33;;;12.00;;
42036;SDS011;75222;52.004;5.908;2024-03-08T03:05:28;18.73;;;10.90;;
42036;SDS011;75222;52.004;5.908;2024-03-08T03:07:57;22.65;;;12.95;;
42036;SDS011;75222;52.004;5.908;2024-03-08T03:10:26;19.65;;;11.43;;
42036;SDS011;75222;52.004;5.908;2024-03-08T03:12:51;21.50;;;12.88;;
42036;SDS011;75222;52.004;5.908;2024-03-08T03:15:17;19.75;;;11.70;;
42036;SDS011;75222;52.004;5.908;2024-03-08T03:17:52;20.98;;;12.20;;
42036;SDS011;75222;52.004;5.908;2024-03-08T03:20:18;22.35;;;13.38;;
42036;SDS011;75222;52.004;5.908;2024-03-08T03:22:57;23.02;;;13.20;;
42036;SDS011;75222;52.004;5.908;2024-03-08T03:25:26;21.90;;;13.57;;
42036;SDS011;75222;52.004;5.908;2024-03-08T03:27:54;24.58;;;13.90;;
42036;SDS011;75222;52.004;5.908;2024-03-08T03:30:23;24.50;;;13.27;;
42036;SDS011;75222;52.004;5.908;2024-03-08T03:32:51;22.15;;;12.48;;
42036;SDS011;75222;52.004;5.908;2024-03-08T03:35:17;21.63;;;12.63;;
42036;SDS011;75222;52.004;5.908;2024-03-08T03:37:45;20.60;;;11.52;;
42036;SDS011;75222;52.004;5.908;2024-03-08T03:40:26;22.20;;;13.23;;
42036;SDS011;75222;52.004;5.908;2024-03-08T03:42:53;18.67;;;11.23;;
42036;SDS011;75222;52.004;5.908;2024-03-08T03:45:18;18.77;;;11.20;;
42036;SDS011;75222;52.004;5.908;2024-03-08T03:47:45;21.52;;;12.30;;
42036;SDS011;75222;52.004;5.908;2024-03-08T03:50:11;24.95;;;14.77;;
42036;SDS011;75222;52.004;5.908;2024-03-08T03:52:36;21.90;;;12.98;;
42036;SDS011;75222;52.004;5.908;2024-03-08T03:55:02;23.05;;;13.50;;
42036;SDS011;75222;52.004;5.908;2024-03-08T03:57:29;19.38;;;11.57;;
42036;SDS011;75222;52.004;5.908;2024-03-08T03:59:55;21.20;;;12.50;;
42036;SDS011;75222;52.004;5.908;2024-03-08T04:02:22;17.80;;;10.32;;
42036;SDS011;75222;52.004;5.908;2024-03-08T04:04:47;22.13;;;12.25;;
42036;SDS011;75222;52.004;5.908;2024-03-08T04:07:14;21.48;;;13.80;;
42036;SDS011;75222;52.004;5.908;2024-03-08T04:09:39;24.13;;;12.05;;
42036;SDS011;75222;52.004;5.908;2024-03-08T04:12:05;21.50;;;12.75;;
42036;SDS011;75222;52.004;5.908;2024-03-08T04:14:31;21.20;;;12.32;;
42036;SDS011;75222;52.004;5.908;2024-03-08T04:16:56;18.33;;;10.43;;
42036;SDS011;75222;52.004;5.908;2024-03-08T04:19:22;20.23;;;12.15;;
42036;SDS011;75222;52.004;5.908;2024-03-08T04:21:49;21.02;;;12.75;;
42036;SDS011;75222;52.004;5.908;2024-03-08T04:24:14;22.52;;;13.05;;
42036;SDS011;75222;52.004;5.908;2024-03-08T04:26:42;19.83;;;12.32;;
42036;SDS011;75222;52.004;5.908;2024-03-08T04:29:07;20.92;;;12.52;;
42036;SDS011;75222;52.004;5.908;2024-03-08T04:31:33;24.77;;;14.02;;
42036;SDS011;75222;52.004;5.908;2024-03-08T04:33:58;23.52;;;13.50;;
42036;SDS011;75222;52.004;5.908;2024-03-08T04:36:24;24.80;;;13.85;;
42036;SDS011;75222;52.004;5.908;2024-03-08T04:38:50;21.40;;;12.13;;
42036;SDS011;75222;52.004;5.908;2024-03-08T04:41:16;21.05;;;13.32;;
42036;SDS011;75222;52.004;5.908;2024-03-08T04:43:42;19.25;;;11.55;;
42036;SDS011;75222;52.004;5.908;2024-03-08T04:46:08;18.92;;;11.15;;
42036;SDS011;75222;52.004;5.908;2024-03-08T04:48:33;21.38;;;11.98;;
42036;SDS011;75222;52.004;5.908;2024-03-08T04:51:01;23.27;;;13.52;;
42036;SDS011;75222;52.004;5.908;2024-03-08T04:53:28;24.95;;;14.07;;
42036;SDS011;75222;52.004;5.908;2024-03-08T04:55:54;26.10;;;14.40;;
42036;SDS011;75222;52.004;5.908;2024-03-08T04:58:22;25.38;;;14.80;;
42036;SDS011;75222;52.004;5.908;2024-03-08T05:00:48;23.02;;;13.65;;
42036;SDS011;75222;52.004;5.908;2024-03-08T05:03:15;21.73;;;13.13;;
42036;SDS011;75222;52.004;5.908;2024-03-08T05:05:41;23.50;;;12.98;;
42036;SDS011;75222;52.004;5.908;2024-03-08T05:08:06;19.90;;;12.30;;
42036;SDS011;75222;52.004;5.908;2024-03-08T05:10:32;21.42;;;11.43;;
42036;SDS011;75222;52.004;5.908;2024-03-08T05:12:58;20.67;;;11.80;;
42036;SDS011;75222;52.004;5.908;2024-03-08T05:15:23;24.35;;;12.80;;
42036;SDS011;75222;52.004;5.908;2024-03-08T05:17:49;21.80;;;12.98;;
42036;SDS011;75222;52.004;5.908;2024-03-08T05:20:14;21.98;;;13.40;;
42036;SDS011;75222;52.004;5.908;2024-03-08T05:22:42;22.35;;;11.80;;
42036;SDS011;75222;52.004;5.908;2024-03-08T05:25:08;22.70;;;12.77;;
42036;SDS011;75222;52.004;5.908;2024-03-08T05:27:34;19.35;;;11.55;;
42036;SDS011;75222;52.004;5.908;2024-03-08T05:30:01;24.08;;;13.38;;
42036;SDS011;75222;52.004;5.908;2024-03-08T05:32:28;24.00;;;14.07;;
42036;SDS011;75222;52.004;5.908;2024-03-08T05:34:54;23.73;;;14.30;;
42036;SDS011;75222;52.004;5.908;2024-03-08T05:37:20;25.42;;;14.95;;
42036;SDS011;75222;52.004;5.908;2024-03-08T05:39:45;25.15;;;14.27;;
42036;SDS011;75222;52.004;5.908;2024-03-08T05:42:11;24.10;;;13.35;;
42036;SDS011;75222;52.004;5.908;2024-03-08T05:44:36;20.73;;;12.35;;
42036;SDS011;75222;52.004;5.908;2024-03-08T05:47:02;20.60;;;11.95;;
42036;SDS011;75222;52.004;5.908;2024-03-08T05:49:27;24.60;;;14.25;;
42036;SDS011;75222;52.004;5.908;2024-03-08T05:51:53;23.38;;;12.95;;
42036;SDS011;75222;52.004;5.908;2024-03-08T05:54:19;22.00;;;12.88;;
42036;SDS011;75222;52.004;5.908;2024-03-08T05:56:47;22.48;;;13.32;;
42036;SDS011;75222;52.004;5.908;2024-03-08T05:59:12;23.27;;;12.88;;
42036;SDS011;75222;52.004;5.908;2024-03-08T06:01:38;22.25;;;13.20;;
42036;SDS011;75222;52.004;5.908;2024-03-08T06:04:05;23.23;;;14.10;;
42036;SDS011;75222;52.004;5.908;2024-03-08T06:06:32;25.23;;;14.80;;
42036;SDS011;75222;52.004;5.908;2024-03-08T06:08:58;28.13;;;15.60;;
42036;SDS011;75222;52.004;5.908;2024-03-08T06:11:24;25.58;;;14.93;;
42036;SDS011;75222;52.004;5.908;2024-03-08T06:13:51;30.48;;;16.70;;
42036;SDS011;75222;52.004;5.908;2024-03-08T06:16:20;28.13;;;15.27;;
42036;SDS011;75222;52.004;5.908;2024-03-08T06:18:45;24.73;;;13.82;;
42036;SDS011;75222;52.004;5.908;2024-03-08T06:21:11;23.85;;;14.02;;
42036;SDS011;75222;52.004;5.908;2024-03-08T06:23:37;27.50;;;15.80;;
42036;SDS011;75222;52.004;5.908;2024-03-08T06:26:06;24.63;;;14.65;;
42036;SDS011;75222;52.004;5.908;2024-03-08T06:28:32;23.58;;;13.73;;
42036;SDS011;75222;52.004;5.908;2024-03-08T06:31:01;27.75;;;15.23;;
42036;SDS011;75222;52.004;5.908;2024-03-08T06:33:27;28.05;;;15.63;;
42036;SDS011;75222;52.004;5.908;2024-03-08T06:35:53;26.13;;;14.52;;
42036;SDS011;75222;52.004;5.908;2024-03-08T06:38:25;26.77;;;16.02;;
42036;SDS011;75222;52.004;5.908;2024-03-08T06:40:51;25.55;;;14.43;;
42036;SDS011;75222;52.004;5.908;2024-03-08T06:43:17;32.85;;;17.90;;
42036;SDS011;75222;52.004;5.908;2024-03-08T06:45:46;27.27;;;16.23;;
42036;SDS011;75222;52.004;5.908;2024-03-08T06:48:15;25.73;;;15.32;;
42036;SDS011;75222;52.004;5.908;2024-03-08T06:50:42;27.48;;;15.80;;
42036;SDS011;75222;52.004;5.908;2024-03-08T06:53:11;27.17;;;15.30;;
42036;SDS011;75222;52.004;5.908;2024-03-08T06:55:37;30.42;;;17.25;;
42036;SDS011;75222;52.004;5.908;2024-03-08T06:58:03;24.38;;;15.00;;
42036;SDS011;75222;52.004;5.908;2024-03-08T07:00:29;28.00;;;16.17;;
42036;SDS011;75222;52.004;5.908;2024-03-08T07:02:55;26.88;;;15.30;;
42036;SDS011;75222;52.004;5.908;2024-03-08T07:05:25;25.42;;;14.32;;
42036;SDS011;75222;52.004;5.908;2024-03-08T07:07:51;28.85;;;16.27;;
42036;SDS011;75222;52.004;5.908;2024-03-08T07:10:17;28.60;;;16.20;;
42036;SDS011;75222;52.004;5.908;2024-03-08T07:12:44;29.60;;;16.20;;
42036;SDS011;75222;52.004;5.908;2024-03-08T07:15:09;27.45;;;15.80;;
42036;SDS011;75222;52.004;5.908;2024-03-08T07:17:39;24.30;;;14.07;;
42036;SDS011;75222;52.004;5.908;2024-03-08T07:20:05;25.15;;;13.77;;
42036;SDS011;75222;52.004;5.908;2024-03-08T07:22:32;27.40;;;15.05;;
42036;SDS011;75222;52.004;5.908;2024-03-08T07:24:58;27.83;;;16.30;;
42036;SDS011;75222;52.004;5.908;2024-03-08T07:27:32;32.05;;;17.60;;
42036;SDS011;75222;52.004;5.908;2024-03-08T07:29:59;31.75;;;18.73;;
42036;SDS011;75222;52.004;5.908;2024-03-08T07:32:25;29.45;;;16.63;;
42036;SDS011;75222;52.004;5.908;2024-03-08T07:34:53;29.15;;;16.40;;
42036;SDS011;75222;52.004;5.908;2024-03-08T07:37:20;29.73;;;16.52;;
42036;SDS011;75222;52.004;5.908;2024-03-08T07:39:46;25.55;;;14.82;;
42036;SDS011;75222;52.004;5.908;2024-03-08T07:42:12;27.45;;;15.82;;
42036;SDS011;75222;52.004;5.908;2024-03-08T07:44:38;28.45;;;16.63;;
42036;SDS011;75222;52.004;5.908;2024-03-08T07:47:04;27.45;;;15.77;;
42036;SDS011;75222;52.004;5.908;2024-03-08T07:49:29;26.00;;;14.70;;
42036;SDS011;75222;52.004;5.908;2024-03-08T07:51:56;28.77;;;16.38;;
42036;SDS011;75222;52.004;5.908;2024-03-08T07:54:22;29.48;;;16.67;;
42036;SDS011;75222;52.004;5.908;2024-03-08T07:56:48;28.10;;;16.00;;
42036;SDS011;75222;52.004;5.908;2024-03-08T07:59:15;29.20;;;15.63;;
42036;SDS011;75222;52.004;5.908;2024-03-08T08:01:41;27.60;;;16.08;;
42036;SDS011;75222;52.004;5.908;2024-03-08T08:04:06;27.23;;;15.23;;
42036;SDS011;75222;52.004;5.908;2024-03-08T08:06:37;32.80;;;17.27;;
42036;SDS011;75222;52.004;5.908;2024-03-08T08:09:08;27.90;;;16.40;;
42036;SDS011;75222;52.004;5.908;2024-03-08T08:11:42;27.15;;;16.02;;
42036;SDS011;75222;52.004;5.908;2024-03-08T08:14:09;29.27;;;16.17;;
42036;SDS011;75222;52.004;5.908;2024-03-08T08:16:35;27.38;;;15.98;;
42036;SDS011;75222;52.004;5.908;2024-03-08T08:19:06;25.08;;;14.35;;
42036;SDS011;75222;52.004;5.908;2024-03-08T08:21:35;23.50;;;14.50;;
42036;SDS011;75222;52.004;5.908;2024-03-08T08:24:03;25.90;;;15.20;;
42036;SDS011;75222;52.004;5.908;2024-03-08T08:26:29;21.48;;;12.73;;
42036;SDS011;75222;52.004;5.908;2024-03-08T08:28:55;22.25;;;13.32;;
42036;SDS011;75222;52.004;5.908;2024-03-08T08:31:21;23.73;;;13.55;;
42036;SDS011;75222;52.004;5.908;2024-03-08T08:33:46;21.73;;;12.23;;
42036;SDS011;75222;52.004;5.908;2024-03-08T08:36:13;29.90;;;16.45;;
42036;SDS011;75222;52.004;5.908;2024-03-08T08:38:39;23.05;;;13.88;;
42036;SDS011;75222;52.004;5.908;2024-03-08T08:41:07;20.20;;;11.52;;
42036;SDS011;75222;52.004;5.908;2024-03-08T08:43:34;20.05;;;11.73;;
42036;SDS011;75222;52.004;5.908;2024-03-08T08:46:00;21.50;;;12.10;;
42036;SDS011;75222;52.004;5.908;2024-03-08T08:48:26;23.42;;;13.45;;
42036;SDS011;75222;52.004;5.908;2024-03-08T08:50:53;22.83;;;13.80;;
42036;SDS011;75222;52.004;5.908;2024-03-08T08:53:18;27.23;;;14.85;;
42036;SDS011;75222;52.004;5.908;2024-03-08T08:55:44;25.80;;;16.08;;
42036;SDS011;75222;52.004;5.908;2024-03-08T08:58:11;24.58;;;14.43;;
42036;SDS011;75222;52.004;5.908;2024-03-08T09:00:36;27.25;;;15.57;;
42036;SDS011;75222;52.004;5.908;2024-03-08T09:03:02;29.75;;;16.85;;
42036;SDS011;75222;52.004;5.908;2024-03-08T09:05:27;25.90;;;14.85;;
42036;SDS011;75222;52.004;5.908;2024-03-08T09:07:53;22.63;;;13.27;;
42036;SDS011;75222;52.004;5.908;2024-03-08T09:10:19;25.50;;;14.82;;
42036;SDS011;75222;52.004;5.908;2024-03-08T09:12:46;27.40;;;15.85;;
42036;SDS011;75222;52.004;5.908;2024-03-08T09:15:12;26.98;;;14.75;;
42036;SDS011;75222;52.004;5.908;2024-03-08T09:17:38;23.25;;;13.88;;
42036;SDS011;75222;52.004;5.908;2024-03-08T09:20:06;19.02;;;11.52;;
42036;SDS011;75222;52.004;5.908;2024-03-08T09:22:33;20.70;;;12.30;;
42036;SDS011;75222;52.004;5.908;2024-03-08T09:24:59;30.23;;;16.13;;
42036;SDS011;75222;52.004;5.908;2024-03-08T09:27:25;27.45;;;16.48;;
42036;SDS011;75222;52.004;5.908;2024-03-08T09:29:50;30.50;;;16.25;;
42036;SDS011;75222;52.004;5.908;2024-03-08T09:32:16;27.95;;;16.45;;
42036;SDS011;75222;52.004;5.908;2024-03-08T09:34:41;29.60;;;17.13;;
42036;SDS011;75222;52.004;5.908;2024-03-08T09:37:07;26.67;;;14.55;;
42036;SDS011;75222;52.004;5.908;2024-03-08T09:39:34;26.77;;;15.27;;
42036;SDS011;75222;52.004;5.908;2024-03-08T09:41:59;29.08;;;16.25;;
42036;SDS011;75222;52.004;5.908;2024-03-08T09:44:26;27.80;;;15.88;;
42036;SDS011;75222;52.004;5.908;2024-03-08T09:46:53;26.15;;;14.57;;
42036;SDS011;75222;52.004;5.908;2024-03-08T09:49:20;24.63;;;13.60;;
42036;SDS011;75222;52.004;5.908;2024-03-08T09:51:45;25.00;;;13.38;;
42036;SDS011;75222;52.004;5.908;2024-03-08T09:54:12;22.75;;;13.38;;
42036;SDS011;75222;52.004;5.908;2024-03-08T09:56:38;21.38;;;12.35;;
42036;SDS011;75222;52.004;5.908;2024-03-08T09:59:06;22.67;;;13.90;;
42036;SDS011;75222;52.004;5.908;2024-03-08T10:01:50;25.50;;;14.88;;
42036;SDS011;75222;52.004;5.908;2024-03-08T10:04:17;24.08;;;13.02;;
42036;SDS011;75222;52.004;5.908;2024-03-08T10:06:43;22.60;;;13.32;;
42036;SDS011;75222;52.004;5.908;2024-03-08T10:09:12;24.58;;;14.30;;
42036;SDS011;75222;52.004;5.908;2024-03-08T10:11:38;27.67;;;15.93;;
42036;SDS011;75222;52.004;5.908;2024-03-08T10:14:05;19.45;;;11.32;;
42036;SDS011;75222;52.004;5.908;2024-03-08T10:16:32;25.75;;;15.15;;
42036;SDS011;75222;52.004;5.908;2024-03-08T10:19:00;22.67;;;13.55;;
42036;SDS011;75222;52.004;5.908;2024-03-08T10:21:25;29.52;;;16.23;;
42036;SDS011;75222;52.004;5.908;2024-03-08T10:23:51;20.77;;;13.02;;
42036;SDS011;75222;52.004;5.908;2024-03-08T10:26:17;22.75;;;12.63;;
42036;SDS011;75222;52.004;5.908;2024-03-08T10:28:45;24.38;;;13.15;;
42036;SDS011;75222;52.004;5.908;2024-03-08T10:31:13;20.98;;;12.25;;
42036;SDS011;75222;52.004;5.908;2024-03-08T10:33:40;24.67;;;13.77;;
42036;SDS011;75222;52.004;5.908;2024-03-08T10:36:09;19.45;;;11.40;;
42036;SDS011;75222;52.004;5.908;2024-03-08T10:38:37;19.88;;;12.18;;
42036;SDS011;75222;52.004;5.908;2024-03-08T10:41:07;20.52;;;11.40;;
42036;SDS011;75222;52.004;5.908;2024-03-08T10:49:26;19.55;;;11.43;;
42036;SDS011;75222;52.004;5.908;2024-03-08T10:51:59;20.25;;;12.23;;
42036;SDS011;75222;52.004;5.908;2024-03-08T10:54:28;20.77;;;12.23;;
42036;SDS011;75222;52.004;5.908;2024-03-08T10:56:56;21.45;;;11.95;;
42036;SDS011;75222;52.004;5.908;2024-03-08T10:59:22;20.60;;;11.85;;
42036;SDS011;75222;52.004;5.908;2024-03-08T11:01:49;19.17;;;11.55;;
42036;SDS011;75222;52.004;5.908;2024-03-08T11:04:15;15.40;;;9.10;;
42036;SDS011;75222;52.004;5.908;2024-03-08T11:06:45;20.42;;;11.95;;
42036;SDS011;75222;52.004;5.908;2024-03-08T11:09:26;22.58;;;13.30;;
42036;SDS011;75222;52.004;5.908;2024-03-08T11:14:44;21.33;;;12.52;;
42036;SDS011;75222;52.004;5.908;2024-03-08T11:17:13;18.10;;;10.98;;
42036;SDS011;75222;52.004;5.908;2024-03-08T11:19:45;19.92;;;12.52;;
42036;SDS011;75222;52.004;5.908;2024-03-08T11:22:20;21.35;;;12.75;;
42036;SDS011;75222;52.004;5.908;2024-03-08T11:24:53;24.50;;;14.52;;
42036;SDS011;75222;52.004;5.908;2024-03-08T11:27:28;22.83;;;13.75;;
42036;SDS011;75222;52.004;5.908;2024-03-08T11:30:04;24.35;;;13.30;;
42036;SDS011;75222;52.004;5.908;2024-03-08T11:32:37;23.52;;;13.65;;
42036;SDS011;75222;52.004;5.908;2024-03-08T11:35:17;20.35;;;11.95;;
42036;SDS011;75222;52.004;5.908;2024-03-08T11:37:44;22.02;;;13.10;;
42036;SDS011;75222;52.004;5.908;2024-03-08T11:40:13;20.33;;;12.35;;
42036;SDS011;75222;52.004;5.908;2024-03-08T11:42:48;18.67;;;11.30;;
42036;SDS011;75222;52.004;5.908;2024-03-08T11:45:17;18.58;;;11.40;;
42036;SDS011;75222;52.004;5.908;2024-03-08T11:47:43;19.70;;;10.90;;
42036;SDS011;75222;52.004;5.908;2024-03-08T11:50:11;17.02;;;10.73;;
42036;SDS011;75222;52.004;5.908;2024-03-08T11:52:37;18.02;;;10.27;;
42036;SDS011;75222;52.004;5.908;2024-03-08T11:55:03;16.83;;;10.40;;
42036;SDS011;75222;52.004;5.908;2024-03-08T11:57:30;20.30;;;12.02;;
42036;SDS011;75222;52.004;5.908;2024-03-08T11:59:58;18.42;;;11.35;;
42036;SDS011;75222;52.004;5.908;2024-03-08T12:02:32;17.40;;;11.10;;
42036;SDS011;75222;52.004;5.908;2024-03-08T12:05:04;15.05;;;9.20;;
42036;SDS011;75222;52.004;5.908;2024-03-08T12:07:35;13.80;;;8.50;;
42036;SDS011;75222;52.004;5.908;2024-03-08T12:12:50;15.15;;;8.80;;
42036;SDS011;75222;52.004;5.908;2024-03-08T12:15:18;16.75;;;10.38;;
42036;SDS011;75222;52.004;5.908;2024-03-08T12:17:45;17.05;;;10.00;;
42036;SDS011;75222;52.004;5.908;2024-03-08T12:22:46;17.15;;;10.68;;
42036;SDS011;75222;52.004;5.908;2024-03-08T12:25:13;19.73;;;11.93;;
42036;SDS011;75222;52.004;5.908;2024-03-08T12:27:40;19.67;;;11.93;;
42036;SDS011;75222;52.004;5.908;2024-03-08T12:30:23;17.10;;;10.82;;
42036;SDS011;75222;52.004;5.908;2024-03-08T12:35:25;19.33;;;12.15;;
42036;SDS011;75222;52.004;5.908;2024-03-08T12:37:56;16.83;;;11.03;;
42036;SDS011;75222;52.004;5.908;2024-03-08T12:40:26;20.50;;;12.05;;
42036;SDS011;75222;52.004;5.908;2024-03-08T12:42:53;17.58;;;10.90;;
42036;SDS011;75222;52.004;5.908;2024-03-08T12:45:20;16.27;;;10.02;;
42036;SDS011;75222;52.004;5.908;2024-03-08T12:47:48;15.52;;;9.90;;
42036;SDS011;75222;52.004;5.908;2024-03-08T12:50:18;16.70;;;10.35;;
42036;SDS011;75222;52.004;5.908;2024-03-08T12:52:47;21.33;;;13.07;;
42036;SDS011;75222;52.004;5.908;2024-03-08T12:55:14;20.48;;;11.63;;
42036;SDS011;75222;52.004;5.908;2024-03-08T12:57:41;18.10;;;11.48;;
42036;SDS011;75222;52.004;5.908;2024-03-08T13:00:07;22.65;;;12.48;;
42036;SDS011;75222;52.004;5.908;2024-03-08T13:02:38;17.77;;;11.40;;
42036;SDS011;75222;52.004;5.908;2024-03-08T13:05:04;19.75;;;12.13;;
42036;SDS011;75222;52.004;5.908;2024-03-08T13:07:30;19.98;;;11.88;;
42036;SDS011;75222;52.004;5.908;2024-03-08T13:09:56;16.90;;;10.90;;
42036;SDS011;75222;52.004;5.908;2024-03-08T13:12:24;15.38;;;9.80;;
42036;SDS011;75222;52.004;5.908;2024-03-08T13:14:50;19.17;;;11.18;;
42036;SDS011;75222;52.004;5.908;2024-03-08T13:17:16;17.58;;;10.82;;
42036;SDS011;75222;52.004;5.908;2024-03-08T13:19:43;19.83;;;11.77;;
42036;SDS011;75222;52.004;5.908;2024-03-08T13:22:09;18.92;;;12.10;;
42036;SDS011;75222;52.004;5.908;2024-03-08T13:24:41;19.80;;;11.20;;
42036;SDS011;75222;52.004;5.908;2024-03-08T13:27:08;16.58;;;10.60;;
42036;SDS011;75222;52.004;5.908;2024-03-08T13:29:47;18.92;;;11.80;;
42036;SDS011;75222;52.004;5.908;2024-03-08T13:32:14;18.30;;;10.85;;
42036;SDS011;75222;52.004;5.908;2024-03-08T13:34:43;17.65;;;10.73;;
42036;SDS011;75222;52.004;5.908;2024-03-08T13:37:19;20.20;;;12.82;;
42036;SDS011;75222;52.004;5.908;2024-03-08T13:39:45;18.65;;;11.40;;
42036;SDS011;75222;52.004;5.908;2024-03-08T13:42:13;19.08;;;12.40;;
42036;SDS011;75222;52.004;5.908;2024-03-08T13:44:47;18.05;;;11.40;;
42036;SDS011;75222;52.004;5.908;2024-03-08T13:47:17;18.80;;;9.85;;
42036;SDS011;75222;52.004;5.908;2024-03-08T13:49:45;17.67;;;10.77;;
42036;SDS011;75222;52.004;5.908;2024-03-08T13:52:11;17.77;;;11.27;;
42036;SDS011;75222;52.004;5.908;2024-03-08T13:54:41;16.90;;;10.68;;
42036;SDS011;75222;52.004;5.908;2024-03-08T13:57:07;16.85;;;10.57;;
42036;SDS011;75222;52.004;5.908;2024-03-08T13:59:33;20.13;;;12.02;;
42036;SDS011;75222;52.004;5.908;2024-03-08T14:02:00;18.73;;;11.25;;
42036;SDS011;75222;52.004;5.908;2024-03-08T14:04:27;17.52;;;10.57;;
42036;SDS011;75222;52.004;5.908;2024-03-08T14:06:53;20.15;;;12.55;;
42036;SDS011;75222;52.004;5.908;2024-03-08T14:09:26;16.52;;;10.32;;
42036;SDS011;75222;52.004;5.908;2024-03-08T14:11:54;18.35;;;11.52;;
42036;SDS011;75222;52.004;5.908;2024-03-08T14:14:22;15.43;;;9.73;;
42036;SDS011;75222;52.004;5.908;2024-03-08T14:16:48;15.70;;;10.27;;
42036;SDS011;75222;52.004;5.908;2024-03-08T14:19:19;18.88;;;12.02;;
42036;SDS011;75222;52.004;5.908;2024-03-08T14:21:45;22.98;;;13.77;;
42036;SDS011;75222;52.004;5.908;2024-03-08T14:24:12;15.57;;;10.07;;
42036;SDS011;75222;52.004;5.908;2024-03-08T14:26:39;17.88;;;11.57;;
42036;SDS011;75222;52.004;5.908;2024-03-08T14:29:07;19.33;;;11.23;;
42036;SDS011;75222;52.004;5.908;2024-03-08T14:31:34;17.27;;;10.82;;
42036;SDS011;75222;52.004;5.908;2024-03-08T14:34:00;21.30;;;12.85;;
42036;SDS011;75222;52.004;5.908;2024-03-08T14:36:28;14.32;;;9.77;;
42036;SDS011;75222;52.004;5.908;2024-03-08T14:38:54;17.75;;;9.70;;